Huvudsida
METAR-TAF:

METAR-TAF

Flygplatser :

Militär flygplats

Khamis Mushait, Saudiarabien

latitud: 18-18N, longitud: 042-48E, höjd: 2066 m

Aktuellt väderrapport

Denna rapport gjordes för 2 timmar och 17 minuter sedan, klockan 00:00 UTC
Vind 6 kt från sydväst
Temperatur 10°C
Fuktighet 93%
Tryck 1024 hPa
Sikt 10 km eller mer
Inga moln under 1 500 m eller inga cumulonimbus

METAR: OEKM 250000Z 22006KT CAVOK 10/09 Q1024 NOSIG

Tid: 05:17 (02:17 UTC)

Väderprognos

Denna rapport gjordes för 3 timmar och 17 minuter sedan, klockan 23:00 UTC
Prognos gäller från 25 kl. 00 UTC till 26 kl. 06 UTC
Vind 14 kt från syd/sydväst
Sikt: 7000 m
Spridda moln på en höjd av 2000 ft
Temporärt
från 25 kl. 00 UTC till 25 kl. 06 UTC
Sikt: 3000 m
fuktdis
Blir
från 25 kl. 20 UTC till 25 kl. 22 UTC
Vind 3 kt varierande vindriktning

TAF: OEKM 242300Z 2500/2606 21014KT 7000 SCT020 TEMPO 2500/2506 3000 BR BECMG 2520/2522 VRB03KT

Aktuella väderrapporter och prognoser från 4000 flygplatser (METAR- och TAF-rapporter).

De tillgängliga stationerna syns som gula och röda prickar på kartan.

För musen över prickarna för att se namnen på stationerna.

Klicka sedan för att få väderrapporter och prognoser.

För att ändra kartan: Klicka på de gröna knapparna med ett svart kors på för att zooma in; den gröna knappen med ett streck på för att zooma ut; eller på de gröna pilarna för angränsande kartor.


METAR-TAF: